createdAt,value
2023-05-01T00:03:25.141Z,695.21951
2023-05-01T00:08:26.610Z,733.74359
2023-05-01T00:13:28.098Z,704.49383
2023-05-01T00:18:29.573Z,811.60563
2023-05-01T00:23:30.838Z,863.40299
2023-05-01T00:28:32.300Z,849.88235
2023-05-01T00:33:33.874Z,906.5
2023-05-01T00:38:35.115Z,849.88235
2023-05-01T00:43:36.373Z,891.69231
2023-05-01T00:48:37.672Z,824
2023-05-01T00:53:39.129Z,799.55556
2023-05-01T00:58:40.460Z,811.60563
2023-05-01T01:03:41.929Z,787.83562
2023-05-01T01:08:43.588Z,754.52632
2023-05-01T01:13:45.213Z,744
2023-05-01T01:18:46.776Z,723.74684
2023-05-01T01:23:48.341Z,723.74684
2023-05-01T01:28:49.925Z,765.33333
2023-05-01T01:33:51.484Z,733.74359
2023-05-01T01:38:53.038Z,704.49383
2023-05-01T01:43:54.801Z,695.21951
2023-05-01T01:48:56.460Z,686.16867
2023-05-01T01:53:57.725Z,686.16867
2023-05-01T01:58:59.404Z,686.16867
2023-05-01T02:04:01.095Z,714
2023-05-01T02:09:02.849Z,799.55556
2023-05-01T02:14:04.437Z,714
2023-05-01T02:19:06.032Z,686.16867
2023-05-01T02:24:07.701Z,644
2023-05-01T02:29:09.502Z,620.92308
2023-05-01T02:34:11.085Z,628.44444
2023-05-01T02:39:12.643Z,704.49383
2023-05-01T02:44:14.267Z,636.13483
2023-05-01T02:49:15.831Z,668.70588
2023-05-01T02:54:17.089Z,849.88235
2023-05-01T02:59:18.527Z,744
2023-05-01T03:04:19.916Z,714
2023-05-01T03:09:21.325Z,723.74684
2023-05-01T03:14:22.671Z,668.70588
2023-05-01T03:19:23.892Z,628.44444
2023-05-01T03:24:25.130Z,613.56522
2023-05-01T03:29:26.599Z,572.57143
2023-05-01T03:34:27.830Z,636.13483
2023-05-01T03:39:29.397Z,599.31915
2023-05-01T03:44:30.735Z,606.36559
2023-05-01T03:49:32.337Z,599.31915
2023-05-01T03:54:33.607Z,553.90099
2023-05-01T03:59:34.899Z,542.05825
2023-05-01T04:04:36.492Z,509.13761
2023-05-01T04:09:38.082Z,498.95495
2023-05-01T04:14:39.860Z,494
2023-05-01T04:19:41.331Z,494
2023-05-01T04:24:42.709Z,498.95495
2023-05-01T04:29:44.146Z,498.95495
2023-05-01T04:34:45.400Z,498.95495
2023-05-01T04:39:46.967Z,498.95495
2023-05-01T04:44:48.569Z,494
2023-05-01T04:49:50.223Z,461.64706
2023-05-01T04:54:51.775Z,484.35088
2023-05-01T04:59:53.372Z,514.37037
2023-05-01T05:04:55.052Z,509.13761
2023-05-01T05:09:56.967Z,479.65217
2023-05-01T05:14:58.753Z,530.66667
2023-05-01T05:20:00.297Z,542.05825
2023-05-01T05:25:01.989Z,553.90099
2023-05-01T05:30:03.564Z,519.70093
2023-05-01T05:35:05.149Z,579.05155
2023-05-01T05:40:06.817Z,695.21951
2023-05-01T05:45:08.391Z,660.27907
2023-05-01T05:50:10.124Z,744
2023-05-01T05:55:11.752Z,824
2023-05-01T06:00:13.327Z,877.33333
2023-05-01T06:05:14.928Z,937.54839
2023-05-01T06:10:16.484Z,921.77778
2023-05-01T06:15:17.740Z,863.40299
2023-05-01T06:20:19.029Z,824
2023-05-01T06:25:20.351Z,723.74684
2023-05-01T06:30:21.802Z,824
2023-05-01T06:35:23.077Z,877.33333
2023-05-01T06:40:24.338Z,1064
2023-05-01T06:45:25.580Z,1151.84314
2023-05-01T06:50:26.911Z,1227.33333
2023-05-01T06:55:28.205Z,1176
2023-05-01T07:00:29.492Z,1523.48718
2023-05-01T07:05:30.839Z,2510.66667
2023-05-01T07:10:32.446Z,3024
2023-05-01T07:15:33.806Z,2622.26087
2023-05-01T07:20:35.356Z,3567.52941
2023-05-01T07:25:36.711Z,4682.46154
2023-05-01T07:30:38.186Z,3567.52941
2023-05-01T07:35:39.695Z,3567.52941
2023-05-01T07:40:40.983Z,2622.26087
2023-05-01T07:45:42.496Z,3186.10526
2023-05-01T07:50:43.759Z,4344
2023-05-01T07:55:45.079Z,5077.33333
2023-05-01T08:00:46.358Z,4682.46154
2023-05-01T08:05:47.698Z,6104
2023-05-01T08:10:49.347Z,6788.44444
2023-05-01T08:15:50.919Z,6104
2023-05-01T08:20:52.526Z,6788.44444
2023-05-01T08:25:54.125Z,6788.44444
2023-05-01T08:30:55.829Z,3366.22222
2023-05-01T08:35:57.406Z,5077.33333
2023-05-01T08:40:58.884Z,5077.33333
2023-05-01T08:46:00.614Z,4344
2023-05-01T08:51:02.208Z,6788.44444
2023-05-01T08:56:03.781Z,6788.44444
2023-05-01T09:01:05.494Z,7644
2023-05-01T09:06:07.111Z,6788.44444
2023-05-01T09:11:08.597Z,8744
2023-05-01T09:16:10.226Z,7644
2023-05-01T09:21:11.793Z,8744
2023-05-01T09:26:13.353Z,12264
2023-05-01T09:31:14.991Z,10210.66667
2023-05-01T09:36:16.550Z,12264
2023-05-01T09:41:17.931Z,10210.66667
2023-05-01T09:46:19.233Z,7644
2023-05-01T09:51:20.705Z,10210.66667
2023-05-01T09:56:22.254Z,12264
2023-05-01T10:16:24.813Z,20477.33333
2023-05-01T10:21:26.079Z,15344
2023-05-01T10:26:27.444Z,12264
2023-05-01T10:31:28.792Z,20477.33333
2023-05-01T10:36:30.151Z,15344
2023-05-01T10:41:31.516Z,15344
2023-05-01T10:46:33.106Z,12264
2023-05-01T10:51:34.489Z,20477.33333
2023-05-01T10:56:35.840Z,20477.33333
2023-05-01T11:01:37.333Z,20477.33333
2023-05-01T11:06:38.770Z,20477.33333
2023-05-01T11:11:40.333Z,20477.33333
2023-05-01T11:16:41.814Z,20477.33333
2023-05-01T11:21:43.245Z,20477.33333
2023-05-01T11:26:44.488Z,6788.44444
2023-05-01T11:31:46.186Z,12264
2023-05-01T11:36:47.609Z,20477.33333
2023-05-01T11:41:49.195Z,20477.33333
2023-05-01T11:46:50.544Z,30744
2023-05-01T11:51:51.893Z,30744
2023-05-01T11:56:53.170Z,30744
2023-05-01T12:01:54.633Z,61544
2023-05-01T12:06:55.933Z,61544
2023-05-01T12:11:57.433Z,61544
2023-05-01T12:16:58.921Z,61544
2023-05-01T12:22:00.434Z,61544
2023-05-01T12:27:01.993Z,61544
2023-05-01T12:32:03.593Z,61544
2023-05-01T12:37:05.505Z,61544
2023-05-01T12:42:06.868Z,61544
2023-05-01T12:47:08.130Z,61544
2023-05-01T12:52:09.600Z,61544
2023-05-01T12:57:10.944Z,0
2023-05-01T13:02:12.601Z,61544
2023-05-01T13:07:13.998Z,61544
2023-05-01T13:12:15.729Z,61544
2023-05-01T13:17:17.394Z,61544
2023-05-01T13:22:19.151Z,0
2023-05-01T13:27:21.053Z,0
2023-05-01T13:32:23.421Z,61544
2023-05-01T13:37:25.810Z,61544
2023-05-01T13:42:28.404Z,61544
2023-05-01T13:47:30.985Z,0
2023-05-01T13:52:33.545Z,61544
2023-05-01T13:57:35.593Z,61544
2023-05-01T14:02:37.825Z,61544
2023-05-01T14:07:40.282Z,61544
2023-05-01T14:12:42.644Z,61544
2023-05-01T14:17:44.966Z,61544
2023-05-01T14:22:46.902Z,61544
2023-05-01T14:27:48.993Z,61544
2023-05-01T14:32:51.354Z,61544
2023-05-01T14:37:53.301Z,30744
2023-05-01T14:42:54.844Z,30744
2023-05-01T14:47:56.420Z,61544
2023-05-01T14:52:57.998Z,61544
2023-05-01T14:57:59.540Z,61544
2023-05-01T15:03:00.885Z,61544
2023-05-01T15:08:02.288Z,30744
2023-05-01T15:13:03.566Z,30744
2023-05-01T15:18:05.320Z,5544
2023-05-01T15:23:07.072Z,6788.44444
2023-05-01T15:28:08.605Z,3366.22222
2023-05-01T15:33:10.041Z,5077.33333
2023-05-01T15:38:11.384Z,4682.46154
2023-05-01T15:43:12.956Z,3794
2023-05-01T15:48:14.640Z,5077.33333
2023-05-01T15:53:16.470Z,4344
2023-05-01T15:58:18.301Z,3567.52941
2023-05-01T16:03:20.147Z,4050.66667
2023-05-01T16:08:21.585Z,3567.52941
2023-05-01T16:13:23.215Z,3366.22222
2023-05-01T16:18:24.988Z,3567.52941
2023-05-01T16:23:26.398Z,5077.33333
2023-05-01T16:28:27.868Z,5077.33333
2023-05-01T16:33:29.267Z,3794
2023-05-01T16:38:30.687Z,3794
2023-05-01T16:43:32.044Z,3794
2023-05-01T16:48:33.754Z,3567.52941
2023-05-01T16:53:35.716Z,988.0678
2023-05-01T16:58:37.619Z,1376.55814
2023-05-01T17:03:39.404Z,1869
2023-05-01T17:08:41.392Z,2744
2023-05-01T17:13:43.232Z,2877.33333
2023-05-01T17:18:45.461Z,3186.10526
2023-05-01T17:23:48.204Z,2313.23077
2023-05-01T17:28:50.541Z,2622.26087
2023-05-01T17:33:52.671Z,2510.66667
2023-05-01T17:38:54.687Z,2408
2023-05-01T17:43:56.736Z,1484
2023-05-01T17:48:58.780Z,1484
2023-05-01T17:54:00.875Z,2408
2023-05-01T17:59:02.902Z,1755.76471
2023-05-01T18:04:05.124Z,2408
2023-05-01T18:09:07.244Z,2622.26087
2023-05-01T18:14:09.233Z,3186.10526
2023-05-01T18:19:11.259Z,3794
2023-05-01T18:24:13.576Z,4682.46154
2023-05-01T18:29:16.124Z,3567.52941
2023-05-01T18:34:18.647Z,3567.52941
2023-05-01T18:39:21.027Z,3366.22222
2023-05-01T18:44:23.380Z,4344
2023-05-01T18:49:26.130Z,4050.66667
2023-05-01T18:54:28.877Z,4682.46154
2023-05-01T18:59:31.527Z,4682.46154
2023-05-01T19:04:40.235Z,4344
2023-05-01T19:09:51.678Z,3794
2023-05-01T19:14:54.028Z,4050.66667
2023-05-01T19:19:56.064Z,4050.66667
2023-05-01T19:24:58.567Z,4344
2023-05-01T19:30:01.699Z,3366.22222
2023-05-01T19:35:04.218Z,3567.52941
2023-05-01T19:40:06.508Z,3567.52941
2023-05-01T19:45:09.259Z,2877.33333
2023-05-01T19:50:11.569Z,3366.22222
2023-05-01T19:55:13.331Z,3567.52941
2023-05-01T20:00:15.268Z,3024
2023-05-01T20:05:16.843Z,2744
2023-05-01T20:10:18.267Z,2408
2023-05-01T20:15:19.848Z,2225.48148
2023-05-01T20:20:21.369Z,2225.48148
2023-05-01T20:25:22.656Z,2408
2023-05-01T20:30:23.992Z,2225.48148
2023-05-01T20:35:25.282Z,1755.76471
2023-05-01T20:40:26.562Z,1810.66667
2023-05-01T20:45:27.817Z,1755.76471
2023-05-01T20:50:29.249Z,1608.86486
2023-05-01T20:55:30.696Z,1523.48718
2023-05-01T21:00:31.968Z,1523.48718
2023-05-01T21:05:33.469Z,1344
2023-05-01T21:10:34.741Z,1931.09677
2023-05-01T21:15:36.160Z,1931.09677
2023-05-01T21:20:37.615Z,1655.11111
2023-05-01T21:25:39.105Z,1446.43902
2023-05-01T21:30:40.673Z,1410.66667
2023-05-01T21:35:42.236Z,1376.55814
2023-05-01T21:40:43.775Z,1410.66667
2023-05-01T21:45:45.378Z,1446.43902
2023-05-01T21:50:46.986Z,1655.11111
2023-05-01T21:55:48.215Z,2144
2023-05-01T22:00:49.559Z,1565.05263
2023-05-01T22:05:51.045Z,1344
2023-05-01T22:10:52.324Z,1410.66667
2023-05-01T22:15:53.859Z,1484
2023-05-01T22:20:55.447Z,1410.66667
2023-05-01T22:25:57.020Z,2144
2023-05-01T22:30:58.572Z,2877.33333
2023-05-01T22:36:00.144Z,2744
2023-05-01T22:41:01.767Z,2313.23077
2023-05-01T22:46:03.319Z,1810.66667
2023-05-01T22:51:04.954Z,1704
2023-05-01T22:56:06.584Z,1704
2023-05-01T23:01:07.971Z,1376.55814
2023-05-01T23:06:09.478Z,1201.14286
2023-05-01T23:11:10.844Z,1106.26415
2023-05-01T23:16:12.148Z,1201.14286
2023-05-01T23:21:13.691Z,1128.61538
2023-05-01T23:26:15.348Z,1084.74074
2023-05-01T23:31:16.960Z,1106.26415
2023-05-01T23:36:18.605Z,1227.33333
2023-05-01T23:41:20.169Z,1084.74074
2023-05-01T23:46:21.825Z,921.77778
2023-05-01T23:51:23.520Z,906.5
2023-05-01T23:56:25.212Z,863.40299
